Annandale, Pennsylvania
Current Conditions -  °F | °C
As of 8:15 PM on Sunday 23 Nov 2014 (Local Time) from KFKL Reporting Station
Clear Clear  
Wind Chill: 52°   Ceiling: Unl
Heat Index: 52°   Visibility: 10mi
Dew Point: 34°   Wind: 16mph
Humidity: 50%   Direction: 130°SE
Pressure: 29.72"   Gusts: 22mph
Location:  41.1142°N, 79.9031°W
Report Text: KFKL 240115Z AUTO 13014G19KT 10SM CLR 11/01 A2972 RMK AO1
Loading
Personal Weather Stations






























Interactive Weather Map New forecast layout! Learn more

10-Day Weather Forecast

Advertisements
Track Severe Weather on mobile